Time;durP1;ratioP1;P1;durP2;ratioP2;P2;SDS_P1;SDS_P2;PMS_P1;PMS_P2;Temp;Humidity;BMP_temperature;BMP_pressure;BME280_temperature;BME280_humidity;BME280_pressure;Samples;Min_cycle;Max_cycle;Signal;HPM_P1;HPM_P2
2024/02/19 00:01:32;;;;;;;116.45;55.20;;;;;;;-0.55;100.00;101525.45;1454451;89;22155;-85
2024/02/19 00:03:58;;;;;;;122.50;57.63;;;;;;;-0.53;100.00;101523.67;1451907;89;21442;-84
2024/02/19 00:06:25;;;;;;;120.00;58.85;;;;;;;-0.52;100.00;101526.69;1446367;90;22228;-84
2024/02/19 00:08:51;;;;;;;122.73;58.47;;;;;;;-0.53;100.00;101521.06;1451198;88;21516;-84
2024/02/19 00:11:18;;;;;;;116.57;55.77;;;;;;;-0.54;100.00;101527.63;1452605;89;21783;-84
2024/02/19 00:13:45;;;;;;;112.43;53.50;;;;;;;-0.57;100.00;101522.53;1452539;89;22089;-84
2024/02/19 00:16:11;;;;;;;116.97;56.23;;;;;;;-0.57;100.00;101522.08;1442078;90;21706;-85
2024/02/19 00:18:38;;;;;;;111.83;53.73;;;;;;;-0.59;100.00;101523.88;1450659;89;21539;-84
2024/02/19 00:21:04;;;;;;;113.17;53.68;;;;;;;-0.62;100.00;101517.47;1450596;89;22691;-85
2024/02/19 00:23:33;;;;;;;107.67;50.03;;;;;;;-0.66;100.00;101517.19;1453027;89;21465;-85
2024/02/19 00:26:00;;;;;;;115.28;53.10;;;;;;;-0.70;100.00;101514.27;1453596;89;21655;-85
2024/02/19 00:28:26;;;;;;;107.47;53.98;;;;;;;-0.69;100.00;101519.88;1452275;88;21508;-87
2024/02/19 00:30:54;;;;;;;110.17;54.67;;;;;;;-0.70;100.00;101516.86;1443103;89;21605;-87
2024/02/19 00:33:21;;;;;;;124.30;56.33;;;;;;;-0.73;100.00;101510.46;1446090;89;21508;-87
2024/02/19 00:35:48;;;;;;;109.33;53.17;;;;;;;-0.76;100.00;101510.56;1453215;89;22086;-87
2024/02/19 00:38:14;;;;;;;100.80;51.17;;;;;;;-0.77;100.00;101514.07;1451524;89;21660;-87
2024/02/19 00:40:41;;;;;;;112.95;53.78;;;;;;;-0.77;100.00;101511.47;1449179;89;21982;-87
2024/02/19 00:43:08;;;;;;;106.78;54.03;;;;;;;-0.79;100.00;101514.11;1455254;89;22065;-86
2024/02/19 00:45:34;;;;;;;103.65;49.45;;;;;;;-0.84;100.00;101507.34;1452177;89;21605;-87
2024/02/19 00:48:00;;;;;;;104.55;49.08;;;;;;;-0.86;100.00;101509.14;1441765;89;21442;-87
2024/02/19 00:50:27;;;;;;;105.55;53.02;;;;;;;-0.85;100.00;101516.91;1444504;89;21411;-85
2024/02/19 00:52:53;;;;;;;108.20;50.58;;;;;;;-0.85;100.00;101510.41;1450784;89;21586;-82
2024/02/19 00:55:23;;;;;;;105.70;51.50;;;;;;;-0.86;100.00;101503.94;1453607;89;21493;-81
2024/02/19 00:57:49;;;;;;;106.58;48.95;;;;;;;-0.90;100.00;101508.39;1450701;89;21412;-84
2024/02/19 01:00:16;;;;;;;99.97;47.75;;;;;;;-0.94;100.00;101518.50;1450571;89;21638;-86
2024/02/19 01:02:42;;;;;;;97.53;48.52;;;;;;;-0.93;100.00;101517.12;1450680;89;21960;-87
2024/02/19 01:05:09;;;;;;;97.88;47.15;;;;;;;-0.92;100.00;101516.70;1450197;89;21574;-86
2024/02/19 01:07:35;;;;;;;106.03;47.33;;;;;;;-0.93;100.00;101518.88;1407817;92;21467;-87
2024/02/19 01:10:01;;;;;;;89.37;45.48;;;;;;;-0.96;100.00;101515.08;1445419;89;21620;-88
2024/02/19 01:12:28;;;;;;;96.53;48.52;;;;;;;-1.01;100.00;101508.72;1454109;89;21493;-88
2024/02/19 01:14:54;;;;;;;97.65;46.20;;;;;;;-1.08;100.00;101502.02;1454838;89;21608;-87
2024/02/19 01:17:21;;;;;;;86.97;43.00;;;;;;;-1.11;100.00;101496.92;1450574;89;21479;-87
2024/02/19 01:19:47;;;;;;;95.00;44.67;;;;;;;-1.12;100.00;101503.03;1447702;89;21435;-88
2024/02/19 01:22:13;;;;;;;91.12;43.20;;;;;;;-1.10;100.00;101498.61;1450200;89;21605;-87
2024/02/19 01:24:40;;;;;;;97.40;47.65;;;;;;;-1.08;100.00;101495.98;1453196;88;21492;-90
2024/02/19 01:27:06;;;;;;;97.57;44.25;;;;;;;-1.07;100.00;101494.62;1453629;89;21800;-88
2024/02/19 01:29:34;;;;;;;92.10;44.18;;;;;;;-1.08;100.00;101490.78;1456289;89;21559;-89
2024/02/19 01:32:00;;;;;;;95.17;43.68;;;;;;;-1.11;100.00;101489.12;1449545;89;22522;-90
2024/02/19 01:34:26;;;;;;;95.30;43.85;;;;;;;-1.12;100.00;101484.84;1448841;89;22446;-89
2024/02/19 01:36:57;;;;;;;87.22;43.30;;;;;;;-1.15;100.00;101488.83;1440129;89;21448;-90
2024/02/19 01:39:25;;;;;;;91.65;41.33;;;;;;;-1.17;100.00;101481.52;1451391;89;22484;-89
2024/02/19 01:41:52;;;;;;;101.42;49.60;;;;;;;-1.15;100.00;101470.19;1442160;89;21516;-89
2024/02/19 01:44:18;;;;;;;98.52;47.88;;;;;;;-1.14;100.00;101458.05;1446452;89;21412;-90
2024/02/19 01:46:45;;;;;;;89.77;43.83;;;;;;;-1.15;100.00;101454.60;1459583;89;21756;-90
2024/02/19 01:49:12;;;;;;;100.47;45.80;;;;;;;-1.17;100.00;101472.43;1452087;88;21464;-92
2024/02/19 01:51:40;;;;;;;99.62;48.30;;;;;;;-1.19;100.00;101466.42;1453170;88;21487;-91
2024/02/19 01:54:09;;;;;;;106.50;45.80;;;;;;;-1.18;100.00;101455.13;1458432;89;22359;-91
2024/02/19 01:56:36;;;;;;;95.15;43.13;;;;;;;-1.19;100.00;101454.73;1450355;89;22499;-84
2024/02/19 01:59:05;;;;;;;92.37;42.95;;;;;;;-1.19;100.00;101450.38;1451257;89;21397;-85
2024/02/19 02:01:34;;;;;;;93.00;41.20;;;;;;;-1.17;100.00;101454.25;1453882;89;21493;-84
2024/02/19 02:04:01;;;;;;;93.42;42.55;;;;;;;-1.21;100.00;101456.52;1451035;89;21486;-86
2024/02/19 02:06:28;;;;;;;89.05;41.77;;;;;;;-1.27;100.00;101456.71;1446141;89;21501;-86
2024/02/19 02:08:57;;;;;;;83.50;40.45;;;;;;;-1.29;100.00;101454.63;1443282;89;21523;-86
2024/02/19 02:11:24;;;;;;;90.83;39.05;;;;;;;-1.33;100.00;101453.00;1449897;88;21523;-87
2024/02/19 02:13:50;;;;;;;77.82;37.42;;;;;;;-1.36;100.00;101448.30;1451375;89;21493;-85
2024/02/19 02:16:28;;;;;;;67.82;35.83;;;;;;;-1.41;100.00;101450.20;1442701;89;21434;-85
2024/02/19 02:18:55;;;;;;;87.62;40.78;;;;;;;-1.51;100.00;101453.95;1451038;89;21493;-86
2024/02/19 02:21:22;;;;;;;80.92;39.08;;;;;;;-1.55;100.00;101456.26;1454105;88;21501;-87
2024/02/19 02:23:49;;;;;;;75.60;38.88;;;;;;;-1.55;100.00;101451.06;1452542;88;21530;-87
2024/02/19 02:26:15;;;;;;;82.78;39.78;;;;;;;-1.57;100.00;101463.69;1449345;89;21663;-86
2024/02/19 02:28:42;;;;;;;82.82;39.80;;;;;;;-1.62;100.00;101457.31;1451862;89;21478;-86
2024/02/19 02:31:08;;;;;;;77.22;36.90;;;;;;;-1.59;100.00;101451.58;1450915;89;21509;-85
2024/02/19 02:33:35;;;;;;;73.22;35.08;;;;;;;-1.58;100.00;101448.56;1450078;89;22796;-86
2024/02/19 02:36:02;;;;;;;64.75;32.67;;;;;;;-1.59;100.00;101445.54;1450881;89;21479;-86
2024/02/19 02:38:29;;;;;;;62.70;32.25;;;;;;;-1.59;100.00;101444.24;1450353;89;21500;-86
2024/02/19 02:40:55;;;;;;;58.35;31.82;;;;;;;-1.62;100.00;101439.14;1446679;89;21619;-86
2024/02/19 02:43:22;;;;;;;61.33;30.23;;;;;;;-1.64;100.00;101440.92;1448952;89;21544;-85
2024/02/19 02:45:48;;;;;;;49.67;29.25;;;;;;;-1.66;100.00;101436.25;1426169;89;22402;-86
2024/02/19 02:48:15;;;;;;;52.88;28.83;;;;;;;-1.71;100.00;101441.56;1449897;89;21427;-85
2024/02/19 02:50:41;;;;;;;59.45;28.95;;;;;;;-1.74;100.00;101443.41;1449342;89;21479;-86
2024/02/19 02:53:08;;;;;;;52.95;27.58;;;;;;;-1.77;100.00;101428.77;1444030;89;22844;-87
2024/02/19 02:55:34;;;;;;;51.90;29.52;;;;;;;-1.77;100.00;101422.73;1450951;88;21647;-87
2024/02/19 02:58:00;;;;;;;58.50;30.32;;;;;;;-1.74;100.00;101422.19;1443409;89;22552;-86
2024/02/19 03:00:26;;;;;;;63.30;31.75;;;;;;;-1.75;100.00;101421.80;1446946;89;21464;-85
2024/02/19 03:02:53;;;;;;;74.37;35.83;;;;;;;-1.78;100.00;101423.19;1443802;89;21702;-86
2024/02/19 03:05:19;;;;;;;77.90;38.23;;;;;;;-1.78;100.00;101424.91;1452455;89;21456;-87
2024/02/19 03:07:45;;;;;;;78.07;38.15;;;;;;;-1.82;100.00;101428.89;1451351;89;21456;-86
2024/02/19 03:10:12;;;;;;;65.30;33.60;;;;;;;-1.84;100.00;101429.40;1454770;89;21471;-86
2024/02/19 03:12:39;;;;;;;71.95;37.70;;;;;;;-1.82;100.00;101428.04;1444173;89;21593;-88
2024/02/19 03:15:06;;;;;;;72.37;37.80;;;;;;;-1.85;100.00;101430.73;1451294;88;22034;-87
2024/02/19 03:17:32;;;;;;;67.55;33.35;;;;;;;-1.88;100.00;101430.36;1451867;89;22535;-87
2024/02/19 03:19:59;;;;;;;73.90;36.63;;;;;;;-1.86;100.00;101435.07;1443411;89;21419;-87
2024/02/19 03:22:29;;;;;;;80.25;37.15;;;;;;;-1.85;100.00;101430.73;1442892;89;21412;-86
2024/02/19 03:24:53;;;;;;;74.50;37.08;;;;;;;-1.85;100.00;101432.02;1406727;89;21471;-86
2024/02/19 03:27:19;;;;;;;75.75;37.08;;;;;;;-1.88;100.00;101434.26;1451734;89;21618;-86
2024/02/19 03:29:47;;;;;;;77.45;37.95;;;;;;;-1.91;100.00;101436.09;1452292;89;21508;-84
2024/02/19 03:32:15;;;;;;;72.42;36.05;;;;;;;-1.93;100.00;101436.58;1453705;89;21538;-86
2024/02/19 03:34:41;;;;;;;70.08;35.98;;;;;;;-1.94;100.00;101433.14;1446293;89;22556;-87
2024/02/19 03:37:08;;;;;;;71.28;38.25;;;;;;;-1.94;100.00;101426.65;1442925;89;21538;-86
2024/02/19 03:39:34;;;;;;;67.03;35.85;;;;;;;-1.94;100.00;101427.95;1447419;88;21685;-85
2024/02/19 03:42:02;;;;;;;51.23;26.45;;;;;;;-1.95;100.00;101423.66;1448591;89;21742;-87
2024/02/19 03:44:32;;;;;;;54.63;25.77;;;;;;;-1.96;100.00;101421.94;1447400;88;22402;-86
2024/02/19 03:46:58;;;;;;;49.50;27.67;;;;;;;-1.97;100.00;101421.55;1451711;89;21471;-87
2024/02/19 03:49:25;;;;;;;44.48;23.25;;;;;;;-1.97;100.00;101417.66;1429175;89;21520;-82
2024/02/19 03:51:51;;;;;;;46.02;23.38;;;;;;;-1.96;100.00;101409.42;1446866;89;22380;-86
2024/02/19 03:54:18;;;;;;;52.03;22.22;;;;;;;-1.96;100.00;101402.48;1453626;88;22550;-85
2024/02/19 03:56:44;;;;;;;37.42;20.55;;;;;;;-1.97;100.00;101400.80;1451733;89;21588;-86
2024/02/19 03:59:12;;;;;;;37.55;20.75;;;;;;;-1.98;100.00;101404.30;1450311;89;21465;-84
2024/02/19 04:01:39;;;;;;;38.80;21.10;;;;;;;-1.99;100.00;101406.47;1444862;89;22299;-83
2024/02/19 04:04:05;;;;;;;39.10;21.30;;;;;;;-1.99;100.00;101414.25;1448980;89;23073;-84
2024/02/19 04:06:31;;;;;;;35.20;18.55;;;;;;;-2.00;100.00;101407.38;1446158;89;21390;-85
2024/02/19 04:08:58;;;;;;;34.23;18.17;;;;;;;-1.99;100.00;101406.47;1454168;89;22462;-84
2024/02/19 04:11:24;;;;;;;32.93;18.73;;;;;;;-1.97;100.00;101405.98;1451284;89;21390;-85
2024/02/19 04:13:51;;;;;;;36.68;19.12;;;;;;;-1.94;100.00;101403.30;1450062;89;21648;-86
2024/02/19 04:16:17;;;;;;;33.28;19.45;;;;;;;-1.93;100.00;101397.20;1453668;89;21503;-85
2024/02/19 04:18:44;;;;;;;47.25;19.10;;;;;;;-1.93;100.00;101399.80;1446054;88;21582;-85
2024/02/19 04:21:10;;;;;;;36.10;19.42;;;;;;;-1.95;100.00;101405.95;1450143;89;21715;-85
2024/02/19 04:23:36;;;;;;;31.17;17.62;;;;;;;-1.99;100.00;101396.09;1450374;89;21456;-85
2024/02/19 04:26:03;;;;;;;37.67;21.10;;;;;;;-2.01;100.00;101394.00;1450469;88;21565;-84
2024/02/19 04:28:29;;;;;;;36.75;18.00;;;;;;;-2.02;100.00;101392.28;1450091;88;22846;-85
2024/02/19 04:30:58;;;;;;;41.05;18.50;;;;;;;-2.03;100.00;101394.94;1455389;89;21479;-86
2024/02/19 04:33:24;;;;;;;31.10;17.20;;;;;;;-2.02;100.00;101400.06;1452723;89;21468;-85
2024/02/19 04:35:51;;;;;;;38.80;19.15;;;;;;;-1.99;100.00;101406.91;1448590;89;21427;-85
2024/02/19 04:38:17;;;;;;;37.93;19.73;;;;;;;-2.01;100.00;101400.49;1452112;89;22024;-85
2024/02/19 04:40:43;;;;;;;39.13;19.27;;;;;;;-2.09;100.00;101394.66;1452494;89;21634;-85
2024/02/19 04:43:10;;;;;;;39.90;18.82;;;;;;;-2.16;100.00;101394.42;1441970;90;21426;-86
2024/02/19 04:45:36;;;;;;;33.40;18.87;;;;;;;-2.16;100.00;101394.42;1451914;89;21456;-85
2024/02/19 04:48:03;;;;;;;36.83;18.87;;;;;;;-2.16;100.00;101395.71;1454871;89;21390;-84
2024/02/19 04:50:29;;;;;;;39.92;19.65;;;;;;;-2.19;100.00;101398.39;1452192;89;21448;-86
2024/02/19 04:52:56;;;;;;;39.50;22.82;;;;;;;-2.16;100.00;101399.60;1452007;88;21791;-87
2024/02/19 04:55:22;;;;;;;41.20;23.25;;;;;;;-2.13;100.00;101398.22;1443408;90;21522;-86
2024/02/19 04:57:48;;;;;;;39.98;20.90;;;;;;;-2.08;100.00;101398.95;1447541;88;22447;-86
2024/02/19 05:00:15;;;;;;;41.77;21.93;;;;;;;-2.11;100.00;101391.25;1450645;89;22535;-86
2024/02/19 05:02:42;;;;;;;34.88;19.02;;;;;;;-2.12;100.00;101389.11;1448600;89;21516;-86
2024/02/19 05:05:09;;;;;;;34.23;18.05;;;;;;;-2.11;100.00;101389.95;1450574;89;21360;-84
2024/02/19 05:07:35;;;;;;;43.17;20.10;;;;;;;-2.11;100.00;101383.02;1450821;89;21456;-84
2024/02/19 05:10:02;;;;;;;41.23;22.67;;;;;;;-2.06;100.00;101376.42;1448963;90;21730;-83
2024/02/19 05:12:28;;;;;;;33.58;20.52;;;;;;;-2.01;100.00;101371.95;1454395;88;21405;-84
2024/02/19 05:14:54;;;;;;;37.75;20.05;;;;;;;-1.95;100.00;101376.12;1447016;88;22460;-83
2024/02/19 05:17:21;;;;;;;38.65;20.32;;;;;;;-1.93;100.00;101373.85;1448042;88;22520;-84
2024/02/19 05:19:47;;;;;;;45.88;23.30;;;;;;;-1.87;100.00;101371.10;1451746;89;21508;-83
2024/02/19 05:22:13;;;;;;;37.00;21.48;;;;;;;-1.79;100.00;101375.20;1461839;88;21530;-82
2024/02/19 05:24:46;;;;;;;44.35;24.45;;;;;;;-1.75;100.00;101380.72;1429042;90;21478;-83
2024/02/19 05:27:13;;;;;;;45.63;23.30;;;;;;;-1.72;100.00;101378.03;1455150;88;21656;-82
2024/02/19 05:29:40;;;;;;;40.08;22.70;;;;;;;-1.69;100.00;101368.41;1440652;88;21457;-82
2024/02/19 05:32:06;;;;;;;35.78;21.40;;;;;;;-1.62;100.00;101370.35;1450329;89;22351;-84
2024/02/19 05:34:32;;;;;;;44.23;22.50;;;;;;;-1.54;100.00;101373.56;1446531;89;21730;-83
2024/02/19 05:36:58;;;;;;;42.70;21.93;;;;;;;-1.47;100.00;101372.47;1453971;88;21547;-81
2024/02/19 05:39:24;;;;;;;40.07;19.33;;;;;;;-1.41;100.00;101367.11;1453104;88;22299;-83
2024/02/19 05:41:50;;;;;;;41.75;21.48;;;;;;;-1.33;100.00;101368.59;1451050;90;21750;-84
2024/02/19 05:44:16;;;;;;;36.83;21.63;;;;;;;-1.27;100.00;101364.50;1446563;89;21993;-84
2024/02/19 05:46:43;;;;;;;37.63;19.27;;;;;;;-1.23;100.00;101354.44;1456539;88;21625;-83
2024/02/19 05:49:10;;;;;;;36.25;19.30;;;;;;;-1.18;100.00;101351.21;1456859;88;22737;-82
2024/02/19 05:51:36;;;;;;;34.75;20.00;;;;;;;-1.12;100.00;101348.44;1449400;88;21486;-83
2024/02/19 05:54:02;;;;;;;29.10;17.90;;;;;;;-1.05;100.00;101351.67;1445342;89;21522;-85
2024/02/19 05:56:29;;;;;;;30.88;18.07;;;;;;;-0.98;100.00;101343.64;1444529;90;22467;-83
2024/02/19 05:58:55;;;;;;;31.48;18.82;;;;;;;-0.90;100.00;101342.05;1455402;88;21464;-83
2024/02/19 06:01:21;;;;;;;29.30;17.62;;;;;;;-0.80;100.00;101343.45;1449811;90;21471;-84
2024/02/19 06:03:47;;;;;;;31.10;16.35;;;;;;;-0.71;100.00;101339.23;1452957;89;21457;-83
2024/02/19 06:06:14;;;;;;;38.33;17.07;;;;;;;-0.63;100.00;101342.00;1457229;88;21442;-84
2024/02/19 06:08:40;;;;;;;29.00;16.65;;;;;;;-0.58;100.00;101338.34;1453800;89;21752;-85
2024/02/19 06:11:06;;;;;;;26.17;16.63;;;;;;;-0.51;100.00;101341.13;1457793;90;22374;-84
2024/02/19 06:13:32;;;;;;;26.77;16.50;;;;;;;-0.49;100.00;101339.34;1446953;88;22103;-83
2024/02/19 06:15:58;;;;;;;25.10;16.17;;;;;;;-0.42;100.00;101332.61;1454818;89;22820;-84
2024/02/19 06:18:25;;;;;;;29.87;18.37;;;;;;;-0.38;100.00;101332.88;1455616;89;21502;-83
2024/02/19 06:20:51;;;;;;;39.77;23.90;;;;;;;-0.34;100.00;101330.59;1447051;89;22320;-80
2024/02/19 06:23:17;;;;;;;31.90;17.77;;;;;;;-0.29;100.00;101335.14;1446874;89;21500;-83
2024/02/19 06:25:44;;;;;;;27.27;17.77;;;;;;;-0.27;100.00;101340.69;1451232;90;21847;-83
2024/02/19 06:28:11;;;;;;;31.13;18.63;;;;;;;-0.24;100.00;101335.83;1446916;90;22034;-82
2024/02/19 06:30:37;;;;;;;27.50;16.93;;;;;;;-0.18;100.00;101343.86;1449596;89;21910;-81
2024/02/19 06:33:04;;;;;;;25.07;16.23;;;;;;;-0.14;100.00;101335.90;1448619;90;21605;-82
2024/02/19 06:35:30;;;;;;;26.93;17.33;;;;;;;-0.10;100.00;101342.67;1452034;89;21859;-84
2024/02/19 06:37:56;;;;;;;28.90;19.30;;;;;;;-0.02;100.00;101348.45;1448232;89;21639;-81
2024/02/19 06:40:22;;;;;;;29.40;19.07;;;;;;;0.04;100.00;101351.28;1447411;89;23040;-80
2024/02/19 06:42:49;;;;;;;34.07;18.63;;;;;;;0.11;100.00;101347.98;1447147;89;21769;-79
2024/02/19 06:45:28;;;;;;;29.57;20.17;;;;;;;0.16;100.00;101341.69;1426117;90;21841;-82
2024/02/19 06:47:54;;;;;;;29.00;18.70;;;;;;;0.21;100.00;101344.12;1447056;89;22135;-84
2024/02/19 06:50:20;;;;;;;32.57;19.83;;;;;;;0.29;100.00;101345.99;1448326;90;21684;-84
2024/02/19 06:52:46;;;;;;;32.87;20.30;;;;;;;0.37;100.00;101349.58;1449040;89;21837;-84
2024/02/19 06:55:17;;;;;;;35.63;20.00;;;;;;;0.42;100.00;101347.19;1452814;90;21701;-84
2024/02/19 06:57:43;;;;;;;30.02;18.48;;;;;;;0.44;100.00;101338.03;1451154;90;21834;-84
2024/02/19 07:00:11;;;;;;;37.07;20.33;;;;;;;0.51;100.00;101346.44;1447956;89;21471;-83
2024/02/19 07:02:38;;;;;;;41.37;23.87;;;;;;;0.60;100.00;101352.58;1447179;89;22404;-83
2024/02/19 07:05:06;;;;;;;35.27;20.73;;;;;;;0.71;100.00;101347.78;1448331;89;21693;-83
2024/02/19 07:07:33;;;;;;;32.47;20.77;;;;;;;0.83;100.00;101344.67;1440956;89;21679;-83
2024/02/19 07:09:59;;;;;;;30.70;18.97;;;;;;;0.96;100.00;101337.67;1449341;88;21680;-85
2024/02/19 07:12:29;;;;;;;32.93;19.10;;;;;;;1.09;100.00;101332.32;1446064;89;21642;-86
2024/02/19 07:14:57;;;;;;;32.33;19.70;;;;;;;1.24;100.00;101326.47;1452024;89;21938;-86
2024/02/19 07:17:24;;;;;;;38.50;21.23;;;;;;;1.38;100.00;101327.16;1455937;89;21699;-82
2024/02/19 07:19:50;;;;;;;44.00;23.17;;;;;;;1.58;100.00;101323.67;1450388;89;21850;-82
2024/02/19 07:22:16;;;;;;;39.03;21.43;;;;;;;1.76;100.00;101322.03;1443656;89;21763;-84
2024/02/19 07:24:42;;;;;;;39.73;20.30;;;;;;;1.86;100.00;101313.31;1426056;91;21474;-82
2024/02/19 07:27:09;;;;;;;35.43;21.47;;;;;;;2.07;100.00;101310.16;1411734;91;22061;-85
2024/02/19 07:29:35;;;;;;;33.00;19.47;;;;;;;2.24;100.00;101304.98;1421815;91;22328;-83
2024/02/19 07:32:01;;;;;;;31.87;21.00;;;;;;;2.39;100.00;101304.74;1428785;91;21996;-84
2024/02/19 07:34:27;;;;;;;33.40;20.63;;;;;;;2.53;100.00;101307.50;1426496;91;21871;-84
2024/02/19 07:36:54;;;;;;;29.50;19.50;;;;;;;2.86;100.00;101304.17;1426301;91;21924;-81
2024/02/19 07:39:20;;;;;;;27.87;16.60;;;;;;;2.86;100.00;101304.17;1420595;91;22194;-83
2024/02/19 07:41:46;;;;;;;29.67;17.20;;;;;;;3.05;100.00;101308.87;1391274;91;23288;-85
2024/02/19 07:44:12;;;;;;;26.00;17.03;;;;;;;3.36;100.00;101299.42;1413457;91;21987;-84
2024/02/19 07:46:39;;;;;;;27.57;16.97;;;;;;;3.36;100.00;101299.42;1422192;91;22192;-85
2024/02/19 07:49:05;;;;;;;26.10;15.43;;;;;;;3.61;100.00;101305.06;1418400;91;22304;-85
2024/02/19 07:51:31;;;;;;;23.70;13.83;;;;;;;3.84;100.00;101313.47;1422362;91;22162;-84
2024/02/19 07:53:58;;;;;;;21.40;14.20;;;;;;;4.05;100.00;101301.80;1427422;91;21460;-85
2024/02/19 07:56:24;;;;;;;25.93;17.33;;;;;;;4.24;100.00;101293.78;1425831;91;22229;-84
2024/02/19 08:01:17;;;;;;;29.17;18.27;;;;;;;4.68;100.00;101295.65;1510646;85;27863;-83
2024/02/19 08:03:44;;;;;;;28.03;18.23;;;;;;;4.80;100.00;101298.03;1480638;88;21510;-84
2024/02/19 08:06:10;;;;;;;23.43;15.43;;;;;;;4.90;100.00;101300.98;1473072;88;22050;-84
2024/02/19 08:08:36;;;;;;;72.53;22.37;;;;;;;5.02;99.47;101302.03;1476420;88;22284;-84
2024/02/19 08:11:02;;;;;;;42.33;24.47;;;;;;;5.10;97.88;101299.80;1470634;88;22195;-84
2024/02/19 08:13:29;;;;;;;50.70;27.60;;;;;;;5.16;95.25;101295.50;1484269;87;21441;-83
2024/02/19 08:16:04;;;;;;;47.10;25.87;;;;;;;5.19;93.21;101303.19;1487630;87;21507;-83
2024/02/19 08:18:30;;;;;;;41.57;24.60;;;;;;;5.21;90.75;101301.33;1484593;87;21507;-85
2024/02/19 08:20:57;;;;;;;31.50;19.23;;;;;;;5.19;88.12;101296.62;1487667;87;22424;-84
2024/02/19 08:23:23;;;;;;;25.17;15.87;;;;;;;5.16;86.97;101288.47;1472477;88;21492;-84
2024/02/19 08:25:50;;;;;;;25.23;15.77;;;;;;;5.15;85.71;101292.03;1483290;87;21680;-86
2024/02/19 08:28:16;;;;;;;21.57;14.83;;;;;;;5.19;85.24;101288.28;1485762;87;21419;-83
2024/02/19 08:30:46;;;;;;;20.33;12.13;;;;;;;5.24;84.22;101289.80;1482726;87;21642;-84
2024/02/19 08:33:12;;;;;;;20.87;13.07;;;;;;;5.31;82.50;101284.55;1470425;87;22003;-84
2024/02/19 08:35:38;;;;;;;20.00;12.87;;;;;;;5.41;81.81;101282.59;1484295;87;21656;-85
2024/02/19 08:38:05;;;;;;;21.90;14.63;;;;;;;5.55;81.69;101279.12;1444810;88;21631;-83
2024/02/19 08:40:31;;;;;;;27.17;16.43;;;;;;;5.71;81.27;101275.54;1491016;88;21471;-82
2024/02/19 08:42:57;;;;;;;21.73;12.97;;;;;;;5.90;80.26;101272.14;1469465;88;21492;-82
2024/02/19 08:45:24;;;;;;;21.37;13.43;;;;;;;6.12;78.83;101271.63;1488298;87;21455;-84
2024/02/19 08:47:50;;;;;;;22.17;13.63;;;;;;;6.39;78.75;101269.47;1481233;87;21547;-84
2024/02/19 08:50:16;;;;;;;41.93;13.67;;;;;;;6.69;76.94;101271.41;1487756;87;21581;-85
2024/02/19 08:52:42;;;;;;;16.07;11.77;;;;;;;6.87;74.45;101268.49;1485497;87;21441;-85
2024/02/19 08:55:10;;;;;;;22.80;12.17;;;;;;;7.04;74.27;101262.93;1488608;87;21397;-84
2024/02/19 08:57:36;;;;;;;18.70;12.73;;;;;;;7.24;72.89;101259.77;1488695;87;21396;-82
2024/02/19 09:00:04;;;;;;;14.80;11.47;;;;;;;7.43;72.46;101262.47;1487269;87;21669;-83
2024/02/19 09:02:30;;;;;;;17.73;11.90;;;;;;;7.56;70.00;101264.59;1485438;87;21463;-83
2024/02/19 09:04:57;;;;;;;16.20;11.50;;;;;;;7.68;71.40;101260.25;1485665;87;21655;-85
2024/02/19 09:07:26;;;;;;;18.23;11.67;;;;;;;7.82;70.81;101260.11;1483258;87;21537;-83
2024/02/19 09:09:52;;;;;;;15.97;11.20;;;;;;;7.96;70.11;101255.17;1487914;87;21894;-85
2024/02/19 09:12:18;;;;;;;18.63;11.50;;;;;;;8.09;69.82;101253.34;1482533;87;21374;-87
2024/02/19 09:14:44;;;;;;;14.30;11.07;;;;;;;8.13;68.92;101254.80;1482823;87;21500;-86
2024/02/19 09:17:10;;;;;;;25.13;12.30;;;;;;;8.17;67.34;101254.56;1485003;87;21434;-84
2024/02/19 09:19:36;;;;;;;17.63;12.03;;;;;;;8.21;68.60;101253.41;1485455;87;21507;-84
2024/02/19 09:22:02;;;;;;;18.37;12.87;;;;;;;8.22;68.81;101249.80;1470944;88;22314;-86
2024/02/19 09:24:33;;;;;;;16.50;11.67;;;;;;;8.27;69.11;101249.00;1482856;87;21412;-85
2024/02/19 09:27:00;;;;;;;21.43;12.77;;;;;;;8.27;67.87;101250.32;1482501;87;23001;-84
2024/02/19 09:29:26;;;;;;;23.17;13.57;;;;;;;8.30;67.79;101248.28;1483621;88;21441;-85
2024/02/19 09:31:52;;;;;;;20.97;13.23;;;;;;;8.36;68.34;101237.77;1482402;87;21514;-85
2024/02/19 09:34:23;;;;;;;15.47;11.80;;;;;;;8.47;68.05;101240.97;1485556;87;22611;-85
2024/02/19 09:36:50;;;;;;;14.77;10.30;;;;;;;8.59;68.29;101234.28;1482334;87;21471;-86
2024/02/19 09:39:21;;;;;;;16.33;12.00;;;;;;;8.68;66.39;101234.55;1484436;87;21514;-86
2024/02/19 09:41:47;;;;;;;17.77;11.70;;;;;;;8.69;66.51;101237.55;1480744;87;22445;-85
2024/02/19 09:44:14;;;;;;;14.67;10.57;;;;;;;8.73;66.94;101231.09;1481333;87;21484;-86
2024/02/19 09:46:43;;;;;;;15.60;11.20;;;;;;;8.88;67.03;101233.87;1480740;87;22358;-85
2024/02/19 09:49:11;;;;;;;13.50;9.47;;;;;;;8.92;66.62;101222.14;1484675;87;22527;-83
2024/02/19 09:51:42;;;;;;;15.40;9.37;;;;;;;8.96;66.92;101219.62;1483740;88;21537;-87
2024/02/19 09:54:10;;;;;;;10.80;8.03;;;;;;;8.95;65.77;101215.80;1471478;88;22424;-85
2024/02/19 09:56:37;;;;;;;11.77;8.63;;;;;;;8.87;63.68;101215.53;1485778;87;21403;-85
2024/02/19 09:59:06;;;;;;;13.80;8.83;;;;;;;8.87;64.60;101216.37;1481684;88;21456;-87
2024/02/19 10:01:33;;;;;;;13.70;9.30;;;;;;;8.90;65.37;101213.49;1467913;88;22361;-84
2024/02/19 10:03:59;;;;;;;14.97;10.53;;;;;;;8.90;65.28;101208.22;1479936;87;21838;-85
2024/02/19 10:06:35;;;;;;;11.70;9.53;;;;;;;8.98;65.90;101201.03;1460328;88;21352;-84
2024/02/19 10:09:06;;;;;;;10.27;8.33;;;;;;;9.07;65.32;101203.44;1478283;88;22439;-86
2024/02/19 10:11:29;;;;;;;11.70;9.10;;;;;;;9.17;64.63;101201.27;1478276;88;22505;-86
2024/02/19 10:13:56;;;;;;;11.03;7.83;;;;;;;9.24;64.44;101199.00;1477917;87;21374;-87
2024/02/19 10:16:22;;;;;;;10.43;7.87;;;;;;;9.31;63.13;101206.80;1468628;88;21575;-86
2024/02/19 10:18:48;;;;;;;14.60;9.40;;;;;;;9.34;62.06;101207.88;1482217;88;21404;-85
2024/02/19 10:21:15;;;;;;;11.70;8.80;;;;;;;9.35;62.43;101197.69;1482439;87;22393;-85
2024/02/19 10:23:41;;;;;;;11.27;8.00;;;;;;;9.41;63.03;101201.16;1478084;88;21670;-84
2024/02/19 10:26:08;;;;;;;14.70;8.47;;;;;;;9.58;63.19;101193.67;1485144;87;21972;-86
2024/02/19 10:28:35;;;;;;;12.43;8.33;;;;;;;9.64;63.23;101194.05;1481538;87;21397;-86
2024/02/19 10:31:01;;;;;;;13.73;9.30;;;;;;;9.62;61.57;101199.09;1480723;88;21499;-85
2024/02/19 10:34:14;;;;;;;10.67;7.10;;;;;;;9.64;62.37;101191.89;1482443;88;21464;-85
2024/02/19 10:36:40;;;;;;;20.63;10.70;;;;;;;9.63;61.51;101188.87;1470857;88;21501;-86
2024/02/19 10:39:07;;;;;;;19.93;12.57;;;;;;;9.69;62.00;101188.38;1468169;88;21449;-85
2024/02/19 10:41:36;;;;;;;12.00;9.00;;;;;;;9.70;61.17;101182.14;1478972;88;21582;-84
2024/02/19 10:44:03;;;;;;;16.77;9.77;;;;;;;9.69;60.83;101184.41;1482347;88;21527;-86
2024/02/19 10:46:31;;;;;;;10.57;8.17;;;;;;;9.75;61.29;101180.44;1481561;87;22440;-85
2024/02/19 10:48:58;;;;;;;16.70;10.40;;;;;;;9.86;61.32;101179.92;1480983;88;21604;-82
2024/02/19 10:51:24;;;;;;;17.07;8.70;;;;;;;10.01;61.06;101175.21;1480940;88;21427;-83
2024/02/19 10:54:02;;;;;;;13.13;8.60;;;;;;;10.20;61.30;101175.84;1481119;88;22446;-83
2024/02/19 10:56:37;;;;;;;10.00;8.17;;;;;;;10.33;60.34;101173.90;1484693;88;21833;-84
2024/02/19 10:59:06;;;;;;;11.27;8.70;;;;;;;10.35;59.20;101172.43;1484173;88;21449;-85
2024/02/19 11:01:48;;;;;;;12.00;8.33;;;;;;;10.33;57.17;101170.42;1478815;87;21500;-85
2024/02/19 11:04:20;;;;;;;12.37;9.10;;;;;;;10.19;57.54;101164.91;1460606;88;22362;-85
2024/02/19 11:06:57;;;;;;;12.93;9.03;;;;;;;10.01;56.25;101153.19;1475069;88;21455;-79
2024/02/19 11:09:34;;;;;;;16.77;9.70;;;;;;;9.88;57.91;101155.52;1477448;88;21598;-76